sensor_id;sensor_type;location;lat;lon;timestamp;P1;durP1;ratioP1;P2;durP2;ratioP2
40314;SDS011;26021;45.640;11.302;2022-07-29T00:01:32;1.80;;;1.70;;
40314;SDS011;26021;45.640;11.302;2022-07-29T00:03:58;4.05;;;2.00;;
40314;SDS011;26021;45.640;11.302;2022-07-29T00:06:23;1.88;;;1.75;;
40314;SDS011;26021;45.640;11.302;2022-07-29T00:08:49;5.20;;;1.92;;
40314;SDS011;26021;45.640;11.302;2022-07-29T00:11:14;2.08;;;1.77;;
40314;SDS011;26021;45.640;11.302;2022-07-29T00:13:40;2.97;;;1.70;;
40314;SDS011;26021;45.640;11.302;2022-07-29T00:16:05;2.63;;;1.77;;
40314;SDS011;26021;45.640;11.302;2022-07-29T00:18:31;2.17;;;1.48;;
40314;SDS011;26021;45.640;11.302;2022-07-29T00:20:57;2.60;;;1.73;;
40314;SDS011;26021;45.640;11.302;2022-07-29T00:23:22;1.77;;;1.45;;
40314;SDS011;26021;45.640;11.302;2022-07-29T00:25:47;3.55;;;1.58;;
40314;SDS011;26021;45.640;11.302;2022-07-29T00:28:13;1.55;;;1.45;;
40314;SDS011;26021;45.640;11.302;2022-07-29T00:30:38;2.47;;;1.45;;
40314;SDS011;26021;45.640;11.302;2022-07-29T00:33:04;1.70;;;1.60;;
40314;SDS011;26021;45.640;11.302;2022-07-29T00:35:30;3.15;;;1.75;;
40314;SDS011;26021;45.640;11.302;2022-07-29T00:38:15;2.67;;;1.75;;
40314;SDS011;26021;45.640;11.302;2022-07-29T00:40:42;2.20;;;1.80;;
40314;SDS011;26021;45.640;11.302;2022-07-29T00:43:08;1.60;;;1.50;;
40314;SDS011;26021;45.640;11.302;2022-07-29T00:45:34;4.90;;;2.20;;
40314;SDS011;26021;45.640;11.302;2022-07-29T00:47:59;2.55;;;2.00;;
40314;SDS011;26021;45.640;11.302;2022-07-29T00:50:25;4.32;;;1.83;;
40314;SDS011;26021;45.640;11.302;2022-07-29T00:52:51;4.75;;;2.00;;
40314;SDS011;26021;45.640;11.302;2022-07-29T00:55:18;1.77;;;1.60;;
40314;SDS011;26021;45.640;11.302;2022-07-29T00:57:44;2.90;;;1.80;;
40314;SDS011;26021;45.640;11.302;2022-07-29T01:00:12;5.50;;;2.15;;
40314;SDS011;26021;45.640;11.302;2022-07-29T01:02:40;2.33;;;2.13;;
40314;SDS011;26021;45.640;11.302;2022-07-29T01:05:05;2.70;;;2.40;;
40314;SDS011;26021;45.640;11.302;2022-07-29T01:07:32;3.72;;;2.45;;
40314;SDS011;26021;45.640;11.302;2022-07-29T01:10:02;2.10;;;1.90;;
40314;SDS011;26021;45.640;11.302;2022-07-29T01:12:29;4.28;;;2.25;;
40314;SDS011;26021;45.640;11.302;2022-07-29T01:14:58;3.05;;;1.80;;
40314;SDS011;26021;45.640;11.302;2022-07-29T01:31:33;3.80;;;2.92;;
40314;SDS011;26021;45.640;11.302;2022-07-29T01:34:07;2.60;;;2.40;;
40314;SDS011;26021;45.640;11.302;2022-07-29T01:36:55;3.20;;;3.00;;
40314;SDS011;26021;45.640;11.302;2022-07-29T01:39:30;3.88;;;3.42;;
40314;SDS011;26021;45.640;11.302;2022-07-29T01:42:05;3.00;;;2.80;;
40314;SDS011;26021;45.640;11.302;2022-07-29T01:44:40;2.88;;;2.63;;
40314;SDS011;26021;45.640;11.302;2022-07-29T01:47:12;3.88;;;2.90;;
40314;SDS011;26021;45.640;11.302;2022-07-29T01:49:45;3.50;;;2.80;;
40314;SDS011;26021;45.640;11.302;2022-07-29T01:53:01;2.92;;;2.50;;
40314;SDS011;26021;45.640;11.302;2022-07-29T01:55:22;4.20;;;2.90;;
40314;SDS011;26021;45.640;11.302;2022-07-29T01:57:52;3.33;;;3.10;;
40314;SDS011;26021;45.640;11.302;2022-07-29T02:00:21;3.25;;;3.00;;
40314;SDS011;26021;45.640;11.302;2022-07-29T02:02:48;4.97;;;3.20;;
40314;SDS011;26021;45.640;11.302;2022-07-29T02:05:17;3.28;;;3.00;;
40314;SDS011;26021;45.640;11.302;2022-07-29T02:07:46;3.47;;;3.08;;
40314;SDS011;26021;45.640;11.302;2022-07-29T02:10:13;3.72;;;3.42;;
40314;SDS011;26021;45.640;11.302;2022-07-29T02:12:42;2.65;;;2.40;;
40314;SDS011;26021;45.640;11.302;2022-07-29T02:15:09;3.00;;;2.80;;
40314;SDS011;26021;45.640;11.302;2022-07-29T02:17:50;3.00;;;2.80;;
40314;SDS011;26021;45.640;11.302;2022-07-29T02:20:20;3.30;;;3.10;;
40314;SDS011;26021;45.640;11.302;2022-07-29T02:22:47;4.22;;;3.40;;
40314;SDS011;26021;45.640;11.302;2022-07-29T02:25:14;4.10;;;3.70;;
40314;SDS011;26021;45.640;11.302;2022-07-29T02:27:41;3.80;;;3.47;;
40314;SDS011;26021;45.640;11.302;2022-07-29T02:30:08;3.72;;;3.38;;
40314;SDS011;26021;45.640;11.302;2022-07-29T02:32:35;3.22;;;2.92;;
40314;SDS011;26021;45.640;11.302;2022-07-29T02:35:05;3.30;;;3.00;;
40314;SDS011;26021;45.640;11.302;2022-07-29T02:37:32;2.83;;;2.60;;
40314;SDS011;26021;45.640;11.302;2022-07-29T02:40:00;3.35;;;3.05;;
40314;SDS011;26021;45.640;11.302;2022-07-29T02:42:26;3.13;;;2.83;;
40314;SDS011;26021;45.640;11.302;2022-07-29T02:44:53;5.18;;;3.47;;
40314;SDS011;26021;45.640;11.302;2022-07-29T02:52:34;3.45;;;3.15;;
40314;SDS011;26021;45.640;11.302;2022-07-29T02:55:11;3.80;;;3.50;;
40314;SDS011;26021;45.640;11.302;2022-07-29T02:58:00;3.72;;;3.33;;
40314;SDS011;26021;45.640;11.302;2022-07-29T03:00:28;4.68;;;3.40;;
40314;SDS011;26021;45.640;11.302;2022-07-29T03:02:56;3.47;;;3.22;;
40314;SDS011;26021;45.640;11.302;2022-07-29T03:05:23;3.72;;;3.42;;
40314;SDS011;26021;45.640;11.302;2022-07-29T03:07:55;3.08;;;2.88;;
40314;SDS011;26021;45.640;11.302;2022-07-29T03:10:24;3.65;;;3.35;;
40314;SDS011;26021;45.640;11.302;2022-07-29T03:12:51;4.00;;;3.58;;
40314;SDS011;26021;45.640;11.302;2022-07-29T03:15:18;3.30;;;3.00;;
40314;SDS011;26021;45.640;11.302;2022-07-29T03:17:44;3.53;;;3.22;;
40314;SDS011;26021;45.640;11.302;2022-07-29T03:20:11;5.50;;;3.50;;
40314;SDS011;26021;45.640;11.302;2022-07-29T03:22:41;4.75;;;3.60;;
40314;SDS011;26021;45.640;11.302;2022-07-29T03:25:11;4.95;;;3.78;;
40314;SDS011;26021;45.640;11.302;2022-07-29T03:27:37;3.67;;;3.38;;
40314;SDS011;26021;45.640;11.302;2022-07-29T03:30:03;4.28;;;3.88;;
40314;SDS011;26021;45.640;11.302;2022-07-29T03:32:30;5.30;;;3.35;;
40314;SDS011;26021;45.640;11.302;2022-07-29T03:34:55;3.90;;;3.60;;
40314;SDS011;26021;45.640;11.302;2022-07-29T03:37:20;3.67;;;3.30;;
40314;SDS011;26021;45.640;11.302;2022-07-29T03:39:46;3.97;;;3.20;;
40314;SDS011;26021;45.640;11.302;2022-07-29T03:42:14;3.33;;;3.08;;
40314;SDS011;26021;45.640;11.302;2022-07-29T03:44:41;3.53;;;3.15;;
40314;SDS011;26021;45.640;11.302;2022-07-29T03:47:09;3.13;;;2.88;;
40314;SDS011;26021;45.640;11.302;2022-07-29T03:49:36;3.70;;;3.08;;
40314;SDS011;26021;45.640;11.302;2022-07-29T03:52:04;3.58;;;3.28;;
40314;SDS011;26021;45.640;11.302;2022-07-29T03:54:31;3.78;;;3.47;;
40314;SDS011;26021;45.640;11.302;2022-07-29T03:56:56;3.60;;;3.30;;
40314;SDS011;26021;45.640;11.302;2022-07-29T03:59:26;4.03;;;3.70;;
40314;SDS011;26021;45.640;11.302;2022-07-29T04:01:52;3.75;;;3.45;;
40314;SDS011;26021;45.640;11.302;2022-07-29T04:04:21;3.33;;;3.03;;
40314;SDS011;26021;45.640;11.302;2022-07-29T04:06:46;3.58;;;3.00;;
40314;SDS011;26021;45.640;11.302;2022-07-29T04:09:12;5.68;;;3.40;;
40314;SDS011;26021;45.640;11.302;2022-07-29T04:11:38;3.63;;;3.33;;
40314;SDS011;26021;45.640;11.302;2022-07-29T04:14:04;4.28;;;3.92;;
40314;SDS011;26021;45.640;11.302;2022-07-29T04:16:30;3.85;;;3.55;;
40314;SDS011;26021;45.640;11.302;2022-07-29T04:18:56;6.00;;;3.50;;
40314;SDS011;26021;45.640;11.302;2022-07-29T04:21:22;4.00;;;3.70;;
40314;SDS011;26021;45.640;11.302;2022-07-29T04:23:47;4.03;;;3.72;;
40314;SDS011;26021;45.640;11.302;2022-07-29T04:26:17;4.55;;;3.78;;
40314;SDS011;26021;45.640;11.302;2022-07-29T04:28:44;5.63;;;3.83;;
40314;SDS011;26021;45.640;11.302;2022-07-29T04:31:10;6.05;;;3.20;;
40314;SDS011;26021;45.640;11.302;2022-07-29T04:33:36;3.90;;;3.60;;
40314;SDS011;26021;45.640;11.302;2022-07-29T04:36:02;4.03;;;3.72;;
40314;SDS011;26021;45.640;11.302;2022-07-29T04:38:28;3.75;;;2.97;;
40314;SDS011;26021;45.640;11.302;2022-07-29T04:40:53;5.45;;;3.90;;
40314;SDS011;26021;45.640;11.302;2022-07-29T04:43:18;4.38;;;4.07;;
40314;SDS011;26021;45.640;11.302;2022-07-29T04:45:44;6.72;;;4.20;;
40314;SDS011;26021;45.640;11.302;2022-07-29T04:48:10;4.18;;;3.88;;
40314;SDS011;26021;45.640;11.302;2022-07-29T04:50:37;4.28;;;3.88;;
40314;SDS011;26021;45.640;11.302;2022-07-29T04:53:03;5.45;;;4.07;;
40314;SDS011;26021;45.640;11.302;2022-07-29T04:55:28;6.72;;;4.00;;
40314;SDS011;26021;45.640;11.302;2022-07-29T04:57:54;4.93;;;4.43;;
40314;SDS011;26021;45.640;11.302;2022-07-29T05:00:19;4.40;;;4.05;;
40314;SDS011;26021;45.640;11.302;2022-07-29T05:02:45;5.35;;;4.03;;
40314;SDS011;26021;45.640;11.302;2022-07-29T05:05:10;4.03;;;3.63;;
40314;SDS011;26021;45.640;11.302;2022-07-29T05:07:36;3.78;;;2.70;;
40314;SDS011;26021;45.640;11.302;2022-07-29T05:10:02;2.38;;;2.17;;
40314;SDS011;26021;45.640;11.302;2022-07-29T05:12:28;3.17;;;2.90;;
40314;SDS011;26021;45.640;11.302;2022-07-29T05:14:53;2.30;;;2.20;;
40314;SDS011;26021;45.640;11.302;2022-07-29T05:17:19;5.57;;;2.55;;
40314;SDS011;26021;45.640;11.302;2022-07-29T05:19:45;2.70;;;2.50;;
40314;SDS011;26021;45.640;11.302;2022-07-29T05:22:10;3.22;;;2.72;;
40314;SDS011;26021;45.640;11.302;2022-07-29T05:24:35;3.13;;;2.60;;
40314;SDS011;26021;45.640;11.302;2022-07-29T05:27:01;5.63;;;2.70;;
40314;SDS011;26021;45.640;11.302;2022-07-29T05:29:26;4.55;;;2.92;;
40314;SDS011;26021;45.640;11.302;2022-07-29T05:31:52;4.68;;;3.17;;
40314;SDS011;26021;45.640;11.302;2022-07-29T05:34:18;4.38;;;3.38;;
40314;SDS011;26021;45.640;11.302;2022-07-29T05:36:44;6.18;;;3.60;;
40314;SDS011;26021;45.640;11.302;2022-07-29T05:39:10;3.58;;;3.28;;
40314;SDS011;26021;45.640;11.302;2022-07-29T05:41:36;2.88;;;2.67;;
40314;SDS011;26021;45.640;11.302;2022-07-29T05:44:01;3.70;;;2.47;;
40314;SDS011;26021;45.640;11.302;2022-07-29T05:46:27;2.72;;;2.53;;
40314;SDS011;26021;45.640;11.302;2022-07-29T05:48:53;3.42;;;2.25;;
40314;SDS011;26021;45.640;11.302;2022-07-29T05:51:18;3.50;;;2.65;;
40314;SDS011;26021;45.640;11.302;2022-07-29T05:53:43;2.65;;;2.50;;
40314;SDS011;26021;45.640;11.302;2022-07-29T05:56:09;3.35;;;2.78;;
40314;SDS011;26021;45.640;11.302;2022-07-29T05:58:35;3.85;;;2.20;;
40314;SDS011;26021;45.640;11.302;2022-07-29T06:01:01;2.72;;;2.40;;
40314;SDS011;26021;45.640;11.302;2022-07-29T06:03:27;2.80;;;2.60;;
40314;SDS011;26021;45.640;11.302;2022-07-29T06:05:53;4.13;;;2.67;;
40314;SDS011;26021;45.640;11.302;2022-07-29T06:08:18;2.60;;;2.40;;
40314;SDS011;26021;45.640;11.302;2022-07-29T06:10:44;2.78;;;2.58;;
40314;SDS011;26021;45.640;11.302;2022-07-29T06:13:10;3.70;;;2.80;;
40314;SDS011;26021;45.640;11.302;2022-07-29T06:15:36;2.70;;;2.50;;
40314;SDS011;26021;45.640;11.302;2022-07-29T06:18:01;2.20;;;2.10;;
40314;SDS011;26021;45.640;11.302;2022-07-29T06:20:27;4.07;;;2.80;;
40314;SDS011;26021;45.640;11.302;2022-07-29T06:22:56;3.00;;;2.35;;
40314;SDS011;26021;45.640;11.302;2022-07-29T06:25:22;3.55;;;2.50;;
40314;SDS011;26021;45.640;11.302;2022-07-29T06:27:47;3.22;;;2.80;;
40314;SDS011;26021;45.640;11.302;2022-07-29T06:30:13;2.70;;;2.50;;
40314;SDS011;26021;45.640;11.302;2022-07-29T06:32:38;4.03;;;2.70;;
40314;SDS011;26021;45.640;11.302;2022-07-29T06:35:04;3.53;;;2.70;;
40314;SDS011;26021;45.640;11.302;2022-07-29T06:37:30;3.38;;;2.65;;
40314;SDS011;26021;45.640;11.302;2022-07-29T06:39:56;3.20;;;2.92;;
40314;SDS011;26021;45.640;11.302;2022-07-29T06:42:43;3.20;;;2.73;;
40314;SDS011;26021;45.640;11.302;2022-07-29T06:45:09;2.88;;;2.60;;
40314;SDS011;26021;45.640;11.302;2022-07-29T06:47:35;4.38;;;2.47;;
40314;SDS011;26021;45.640;11.302;2022-07-29T06:50:01;3.65;;;2.75;;
40314;SDS011;26021;45.640;11.302;2022-07-29T06:52:27;4.30;;;2.75;;
40314;SDS011;26021;45.640;11.302;2022-07-29T06:54:52;2.50;;;2.30;;
40314;SDS011;26021;45.640;11.302;2022-07-29T06:57:19;2.63;;;2.42;;
40314;SDS011;26021;45.640;11.302;2022-07-29T06:59:45;2.78;;;2.45;;
40314;SDS011;26021;45.640;11.302;2022-07-29T07:02:11;3.88;;;2.70;;
40314;SDS011;26021;45.640;11.302;2022-07-29T07:04:36;3.70;;;2.65;;
40314;SDS011;26021;45.640;11.302;2022-07-29T07:07:02;2.60;;;2.25;;
40314;SDS011;26021;45.640;11.302;2022-07-29T07:09:28;2.75;;;2.25;;
40314;SDS011;26021;45.640;11.302;2022-07-29T07:11:53;2.60;;;2.40;;
40314;SDS011;26021;45.640;11.302;2022-07-29T07:14:18;3.47;;;2.10;;
40314;SDS011;26021;45.640;11.302;2022-07-29T07:16:44;3.63;;;2.47;;
40314;SDS011;26021;45.640;11.302;2022-07-29T07:19:09;2.33;;;2.20;;
40314;SDS011;26021;45.640;11.302;2022-07-29T07:21:35;4.32;;;2.40;;
40314;SDS011;26021;45.640;11.302;2022-07-29T07:24:00;2.30;;;2.10;;
40314;SDS011;26021;45.640;11.302;2022-07-29T07:26:26;2.30;;;1.98;;
40314;SDS011;26021;45.640;11.302;2022-07-29T07:28:52;4.40;;;2.20;;
40314;SDS011;26021;45.640;11.302;2022-07-29T07:31:17;2.97;;;1.95;;
40314;SDS011;26021;45.640;11.302;2022-07-29T07:33:43;2.00;;;1.67;;
40314;SDS011;26021;45.640;11.302;2022-07-29T07:36:09;3.65;;;2.40;;
40314;SDS011;26021;45.640;11.302;2022-07-29T07:38:34;5.22;;;3.40;;
40314;SDS011;26021;45.640;11.302;2022-07-29T07:41:00;6.60;;;3.25;;
40314;SDS011;26021;45.640;11.302;2022-07-29T07:43:26;4.25;;;2.42;;
40314;SDS011;26021;45.640;11.302;2022-07-29T07:45:51;3.00;;;2.17;;
40314;SDS011;26021;45.640;11.302;2022-07-29T07:48:17;2.33;;;2.17;;
40314;SDS011;26021;45.640;11.302;2022-07-29T07:50:43;2.60;;;2.40;;
40314;SDS011;26021;45.640;11.302;2022-07-29T07:53:08;5.15;;;2.60;;
40314;SDS011;26021;45.640;11.302;2022-07-29T07:55:38;6.50;;;2.63;;
40314;SDS011;26021;45.640;11.302;2022-07-29T07:58:04;4.18;;;2.20;;
40314;SDS011;26021;45.640;11.302;2022-07-29T08:00:30;2.40;;;2.17;;
40314;SDS011;26021;45.640;11.302;2022-07-29T08:02:57;2.33;;;2.13;;
40314;SDS011;26021;45.640;11.302;2022-07-29T08:05:22;6.20;;;2.47;;
40314;SDS011;26021;45.640;11.302;2022-07-29T08:07:48;3.65;;;2.70;;
40314;SDS011;26021;45.640;11.302;2022-07-29T08:10:14;3.42;;;2.28;;
40314;SDS011;26021;45.640;11.302;2022-07-29T08:13:01;5.13;;;2.70;;
40314;SDS011;26021;45.640;11.302;2022-07-29T08:15:34;6.10;;;2.27;;
40314;SDS011;26021;45.640;11.302;2022-07-29T08:18:00;3.80;;;2.65;;
40314;SDS011;26021;45.640;11.302;2022-07-29T08:20:26;3.42;;;2.13;;
40314;SDS011;26021;45.640;11.302;2022-07-29T08:22:52;2.35;;;2.25;;
40314;SDS011;26021;45.640;11.302;2022-07-29T08:25:18;8.00;;;2.70;;
40314;SDS011;26021;45.640;11.302;2022-07-29T08:27:45;3.25;;;2.53;;
40314;SDS011;26021;45.640;11.302;2022-07-29T08:30:14;2.80;;;2.50;;
40314;SDS011;26021;45.640;11.302;2022-07-29T08:32:39;2.92;;;2.72;;
40314;SDS011;26021;45.640;11.302;2022-07-29T08:35:05;2.90;;;2.70;;
40314;SDS011;26021;45.640;11.302;2022-07-29T08:37:31;3.53;;;2.78;;
40314;SDS011;26021;45.640;11.302;2022-07-29T08:39:56;5.68;;;2.60;;
40314;SDS011;26021;45.640;11.302;2022-07-29T08:42:22;3.35;;;2.55;;
40314;SDS011;26021;45.640;11.302;2022-07-29T08:44:48;4.25;;;2.88;;
40314;SDS011;26021;45.640;11.302;2022-07-29T08:47:14;4.65;;;3.63;;
40314;SDS011;26021;45.640;11.302;2022-07-29T08:49:39;3.35;;;3.05;;
40314;SDS011;26021;45.640;11.302;2022-07-29T08:52:05;4.32;;;2.88;;
40314;SDS011;26021;45.640;11.302;2022-07-29T08:54:32;5.07;;;3.30;;
40314;SDS011;26021;45.640;11.302;2022-07-29T08:56:58;3.28;;;3.05;;
40314;SDS011;26021;45.640;11.302;2022-07-29T08:59:25;5.30;;;2.83;;
40314;SDS011;26021;45.640;11.302;2022-07-29T09:01:53;4.32;;;3.63;;
40314;SDS011;26021;45.640;11.302;2022-07-29T09:04:19;4.38;;;3.53;;
40314;SDS011;26021;45.640;11.302;2022-07-29T09:06:47;6.95;;;3.40;;
40314;SDS011;26021;45.640;11.302;2022-07-29T09:09:14;4.22;;;3.83;;
40314;SDS011;26021;45.640;11.302;2022-07-29T09:11:41;3.80;;;3.40;;
40314;SDS011;26021;45.640;11.302;2022-07-29T09:14:07;3.80;;;3.45;;
40314;SDS011;26021;45.640;11.302;2022-07-29T09:16:49;5.05;;;3.60;;
40314;SDS011;26021;45.640;11.302;2022-07-29T09:19:20;5.38;;;3.85;;
40314;SDS011;26021;45.640;11.302;2022-07-29T09:21:53;5.43;;;3.80;;
40314;SDS011;26021;45.640;11.302;2022-07-29T09:24:22;8.25;;;3.83;;
40314;SDS011;26021;45.640;11.302;2022-07-29T09:26:48;4.00;;;3.70;;
40314;SDS011;26021;45.640;11.302;2022-07-29T09:29:17;5.22;;;3.80;;
40314;SDS011;26021;45.640;11.302;2022-07-29T09:31:45;6.03;;;4.13;;
40314;SDS011;26021;45.640;11.302;2022-07-29T09:34:16;4.30;;;3.70;;
40314;SDS011;26021;45.640;11.302;2022-07-29T09:36:47;5.78;;;3.75;;
40314;SDS011;26021;45.640;11.302;2022-07-29T09:39:15;5.15;;;3.70;;
40314;SDS011;26021;45.640;11.302;2022-07-29T09:41:52;6.75;;;3.78;;
40314;SDS011;26021;45.640;11.302;2022-07-29T09:44:19;6.90;;;4.13;;
40314;SDS011;26021;45.640;11.302;2022-07-29T09:46:55;4.72;;;3.53;;
40314;SDS011;26021;45.640;11.302;2022-07-29T09:49:24;4.47;;;4.07;;
40314;SDS011;26021;45.640;11.302;2022-07-29T09:51:59;5.75;;;3.90;;
40314;SDS011;26021;45.640;11.302;2022-07-29T09:54:28;4.18;;;3.80;;
40314;SDS011;26021;45.640;11.302;2022-07-29T09:56:59;6.97;;;4.00;;
40314;SDS011;26021;45.640;11.302;2022-07-29T09:59:24;7.32;;;4.45;;
40314;SDS011;26021;45.640;11.302;2022-07-29T10:01:51;6.43;;;3.78;;
40314;SDS011;26021;45.640;11.302;2022-07-29T10:04:18;5.07;;;3.85;;
40314;SDS011;26021;45.640;11.302;2022-07-29T10:06:59;6.28;;;4.10;;
40314;SDS011;26021;45.640;11.302;2022-07-29T10:09:26;4.88;;;4.05;;
40314;SDS011;26021;45.640;11.302;2022-07-29T10:14:31;6.03;;;4.60;;
40314;SDS011;26021;45.640;11.302;2022-07-29T10:16:58;7.95;;;4.97;;
40314;SDS011;26021;45.640;11.302;2022-07-29T10:19:25;5.53;;;4.28;;
40314;SDS011;26021;45.640;11.302;2022-07-29T10:21:53;9.50;;;4.82;;
40314;SDS011;26021;45.640;11.302;2022-07-29T10:24:19;5.57;;;4.68;;
40314;SDS011;26021;45.640;11.302;2022-07-29T10:26:45;5.95;;;4.20;;
40314;SDS011;26021;45.640;11.302;2022-07-29T10:29:12;5.28;;;4.45;;
40314;SDS011;26021;45.640;11.302;2022-07-29T10:37:37;6.85;;;4.50;;
40314;SDS011;26021;45.640;11.302;2022-07-29T10:40:22;6.97;;;5.32;;
40314;SDS011;26021;45.640;11.302;2022-07-29T10:43:17;7.45;;;4.72;;
40314;SDS011;26021;45.640;11.302;2022-07-29T10:45:57;7.95;;;5.32;;
40314;SDS011;26021;45.640;11.302;2022-07-29T10:48:24;5.85;;;4.90;;
40314;SDS011;26021;45.640;11.302;2022-07-29T10:54:12;4.75;;;4.25;;
40314;SDS011;26021;45.640;11.302;2022-07-29T11:01:51;4.93;;;4.50;;
40314;SDS011;26021;45.640;11.302;2022-07-29T11:07:07;7.38;;;4.78;;
40314;SDS011;26021;45.640;11.302;2022-07-29T11:09:33;5.95;;;4.35;;
40314;SDS011;26021;45.640;11.302;2022-07-29T11:11:59;6.88;;;5.10;;
40314;SDS011;26021;45.640;11.302;2022-07-29T11:17:19;9.48;;;4.78;;
40314;SDS011;26021;45.640;11.302;2022-07-29T11:19:45;5.35;;;4.43;;
40314;SDS011;26021;45.640;11.302;2022-07-29T11:22:12;6.63;;;4.70;;
40314;SDS011;26021;45.640;11.302;2022-07-29T11:25:13;7.80;;;4.80;;
40314;SDS011;26021;45.640;11.302;2022-07-29T11:27:44;5.65;;;4.97;;
40314;SDS011;26021;45.640;11.302;2022-07-29T11:30:10;6.40;;;5.28;;
40314;SDS011;26021;45.640;11.302;2022-07-29T11:32:37;6.63;;;4.90;;
40314;SDS011;26021;45.640;11.302;2022-07-29T11:35:14;5.65;;;4.70;;
40314;SDS011;26021;45.640;11.302;2022-07-29T11:43:57;7.82;;;5.00;;
40314;SDS011;26021;45.640;11.302;2022-07-29T11:49:09;9.38;;;5.20;;
40314;SDS011;26021;45.640;11.302;2022-07-29T11:51:38;6.38;;;4.70;;
40314;SDS011;26021;45.640;11.302;2022-07-29T11:54:04;5.43;;;4.93;;
40314;SDS011;26021;45.640;11.302;2022-07-29T11:56:30;6.45;;;5.15;;
40314;SDS011;26021;45.640;11.302;2022-07-29T11:59:06;4.50;;;4.10;;
40314;SDS011;26021;45.640;11.302;2022-07-29T12:01:34;6.43;;;4.93;;
40314;SDS011;26021;45.640;11.302;2022-07-29T12:04:06;7.28;;;5.30;;
40314;SDS011;26021;45.640;11.302;2022-07-29T12:06:33;5.72;;;5.25;;
40314;SDS011;26021;45.640;11.302;2022-07-29T12:08:59;5.50;;;5.00;;
40314;SDS011;26021;45.640;11.302;2022-07-29T12:11:25;5.72;;;5.20;;
40314;SDS011;26021;45.640;11.302;2022-07-29T12:13:51;8.35;;;5.15;;
40314;SDS011;26021;45.640;11.302;2022-07-29T12:16:17;5.57;;;4.95;;
40314;SDS011;26021;45.640;11.302;2022-07-29T12:18:54;6.13;;;5.07;;
40314;SDS011;26021;45.640;11.302;2022-07-29T12:21:23;5.97;;;4.93;;
40314;SDS011;26021;45.640;11.302;2022-07-29T12:23:52;7.35;;;5.15;;
40314;SDS011;26021;45.640;11.302;2022-07-29T12:26:19;8.23;;;5.05;;
40314;SDS011;26021;45.640;11.302;2022-07-29T12:28:45;6.88;;;5.10;;
40314;SDS011;26021;45.640;11.302;2022-07-29T12:31:14;5.95;;;4.80;;
40314;SDS011;26021;45.640;11.302;2022-07-29T12:33:40;6.90;;;4.93;;
40314;SDS011;26021;45.640;11.302;2022-07-29T12:36:06;6.88;;;5.25;;
40314;SDS011;26021;45.640;11.302;2022-07-29T12:38:33;9.75;;;5.15;;
40314;SDS011;26021;45.640;11.302;2022-07-29T12:41:00;5.80;;;5.20;;
40314;SDS011;26021;45.640;11.302;2022-07-29T12:43:26;8.73;;;5.00;;
40314;SDS011;26021;45.640;11.302;2022-07-29T12:45:52;6.70;;;4.80;;
40314;SDS011;26021;45.640;11.302;2022-07-29T12:48:36;6.13;;;5.63;;
40314;SDS011;26021;45.640;11.302;2022-07-29T12:51:03;4.65;;;4.25;;
40314;SDS011;26021;45.640;11.302;2022-07-29T12:53:31;6.68;;;5.60;;
40314;SDS011;26021;45.640;11.302;2022-07-29T12:55:57;6.30;;;4.90;;
40314;SDS011;26021;45.640;11.302;2022-07-29T13:01:12;6.45;;;5.05;;
40314;SDS011;26021;45.640;11.302;2022-07-29T13:03:47;5.55;;;5.13;;
40314;SDS011;26021;45.640;11.302;2022-07-29T13:06:41;6.60;;;5.28;;
40314;SDS011;26021;45.640;11.302;2022-07-29T13:11:41;5.68;;;4.97;;
40314;SDS011;26021;45.640;11.302;2022-07-29T13:14:36;4.68;;;4.25;;
40314;SDS011;26021;45.640;11.302;2022-07-29T13:19:41;6.18;;;5.20;;
40314;SDS011;26021;45.640;11.302;2022-07-29T13:22:30;5.25;;;4.75;;
40314;SDS011;26021;45.640;11.302;2022-07-29T13:24:57;5.20;;;4.65;;
40314;SDS011;26021;45.640;11.302;2022-07-29T13:27:27;5.85;;;5.07;;
40314;SDS011;26021;45.640;11.302;2022-07-29T13:29:55;5.25;;;4.75;;
40314;SDS011;26021;45.640;11.302;2022-07-29T13:32:22;5.20;;;4.55;;
40314;SDS011;26021;45.640;11.302;2022-07-29T13:34:49;6.53;;;4.45;;
40314;SDS011;26021;45.640;11.302;2022-07-29T13:37:15;6.88;;;4.85;;
40314;SDS011;26021;45.640;11.302;2022-07-29T13:39:41;6.55;;;4.55;;
40314;SDS011;26021;45.640;11.302;2022-07-29T13:42:08;5.28;;;4.78;;
40314;SDS011;26021;45.640;11.302;2022-07-29T13:44:33;7.45;;;4.78;;
40314;SDS011;26021;45.640;11.302;2022-07-29T13:47:00;8.88;;;4.80;;
40314;SDS011;26021;45.640;11.302;2022-07-29T13:49:26;7.85;;;4.70;;
40314;SDS011;26021;45.640;11.302;2022-07-29T13:51:52;4.93;;;4.32;;
40314;SDS011;26021;45.640;11.302;2022-07-29T13:54:18;5.43;;;4.93;;
40314;SDS011;26021;45.640;11.302;2022-07-29T13:56:44;5.97;;;4.28;;
40314;SDS011;26021;45.640;11.302;2022-07-29T13:59:09;5.18;;;4.55;;
40314;SDS011;26021;45.640;11.302;2022-07-29T14:01:35;4.95;;;4.55;;
40314;SDS011;26021;45.640;11.302;2022-07-29T14:04:01;4.93;;;4.30;;
40314;SDS011;26021;45.640;11.302;2022-07-29T14:06:27;6.78;;;4.50;;
40314;SDS011;26021;45.640;11.302;2022-07-29T14:08:52;6.68;;;4.60;;
40314;SDS011;26021;45.640;11.302;2022-07-29T14:11:18;4.55;;;4.15;;
40314;SDS011;26021;45.640;11.302;2022-07-29T14:13:44;5.75;;;4.60;;
40314;SDS011;26021;45.640;11.302;2022-07-29T14:16:09;5.13;;;3.85;;
40314;SDS011;26021;45.640;11.302;2022-07-29T14:18:35;5.05;;;4.15;;
40314;SDS011;26021;45.640;11.302;2022-07-29T14:21:00;4.00;;;3.70;;
40314;SDS011;26021;45.640;11.302;2022-07-29T14:23:26;4.50;;;4.10;;
40314;SDS011;26021;45.640;11.302;2022-07-29T14:25:51;5.30;;;4.80;;
40314;SDS011;26021;45.640;11.302;2022-07-29T14:28:16;6.03;;;4.78;;
40314;SDS011;26021;45.640;11.302;2022-07-29T14:30:42;5.07;;;3.90;;
40314;SDS011;26021;45.640;11.302;2022-07-29T14:33:08;4.57;;;4.15;;
40314;SDS011;26021;45.640;11.302;2022-07-29T14:35:34;4.57;;;3.92;;
40314;SDS011;26021;45.640;11.302;2022-07-29T14:38:00;7.07;;;4.38;;
40314;SDS011;26021;45.640;11.302;2022-07-29T14:40:25;4.35;;;4.05;;
40314;SDS011;26021;45.640;11.302;2022-07-29T14:42:51;7.03;;;4.30;;
40314;SDS011;26021;45.640;11.302;2022-07-29T14:45:16;4.45;;;4.10;;
40314;SDS011;26021;45.640;11.302;2022-07-29T14:47:42;6.15;;;4.72;;
40314;SDS011;26021;45.640;11.302;2022-07-29T14:50:07;4.70;;;4.30;;
40314;SDS011;26021;45.640;11.302;2022-07-29T14:52:34;4.28;;;3.90;;
40314;SDS011;26021;45.640;11.302;2022-07-29T14:55:00;4.35;;;3.95;;
40314;SDS011;26021;45.640;11.302;2022-07-29T14:57:26;4.15;;;3.85;;
40314;SDS011;26021;45.640;11.302;2022-07-29T14:59:51;5.40;;;4.15;;
40314;SDS011;26021;45.640;11.302;2022-07-29T15:02:16;6.07;;;4.20;;
40314;SDS011;26021;45.640;11.302;2022-07-29T15:04:42;5.50;;;4.55;;
40314;SDS011;26021;45.640;11.302;2022-07-29T15:07:09;4.60;;;4.20;;
40314;SDS011;26021;45.640;11.302;2022-07-29T15:09:34;6.43;;;4.53;;
40314;SDS011;26021;45.640;11.302;2022-07-29T15:12:00;5.40;;;4.45;;
40314;SDS011;26021;45.640;11.302;2022-07-29T15:14:27;6.18;;;4.93;;
40314;SDS011;26021;45.640;11.302;2022-07-29T15:16:52;6.20;;;4.60;;
40314;SDS011;26021;45.640;11.302;2022-07-29T15:19:18;6.30;;;4.70;;
40314;SDS011;26021;45.640;11.302;2022-07-29T15:21:44;5.43;;;4.43;;
40314;SDS011;26021;45.640;11.302;2022-07-29T15:24:09;5.22;;;4.82;;
40314;SDS011;26021;45.640;11.302;2022-07-29T15:26:35;6.85;;;5.85;;
40314;SDS011;26021;45.640;11.302;2022-07-29T15:29:00;6.18;;;4.97;;
40314;SDS011;26021;45.640;11.302;2022-07-29T15:31:26;7.57;;;5.30;;
40314;SDS011;26021;45.640;11.302;2022-07-29T15:33:51;7.85;;;5.03;;
40314;SDS011;26021;45.640;11.302;2022-07-29T15:36:17;5.78;;;5.22;;